Aeroporto :
LOGIN :

Iscrizione | Disclaimer

   EN    FR    IT 

 










Sommario :    VFR   VFR Marginale   IFR   IFR Intensivo   IFR Molto Intensivo
Visibilità : 
Base nubi : 
>= 8 km
>= 3000ft
5 / 8 km
1000 / 3000 ft
1500m / 5 km
500 / 1000 ft
800 / 1500m
200 / 500 ft
< 800m
< 200 ft
Simboli :   Temporali  Nebbia  Neve Forte  Precipitazioni Forti  Vento > 20 kt
SIGMETs :   Varie  Temporali  Ghiacco  Turbolenza  Onda orograficha  Ceneri Vulcaniche






- Altitudine del aeroporto : 194 ft
- Codice IATA : LME


LFRM - Le Mans

ULTIMO METAR :
  • 191730Z AUTO 26007KT 230V310 9999 SCT015 SCT030 BKN072 22/19 Q1018 TEMPO 4000 -SHRA SCT025CB BKN030

METARs OBSOLETI :
  • 191700Z AUTO 27005KT 210V320 9999 FEW019 SCT024 BKN029 22/19 Q1018 TEMPO 4000 -TSRA SCT025CB BKN030
  • 191630Z AUTO 25005KT 210V290 9999 BKN015/// BKN033/// OVC110/// ///TCU 22/19 Q1018 TEMPO 4000 -TSRA SCT025CB BKN030
  • 191600Z AUTO 28004KT 240V330 9999 FEW018/// BKN041/// BKN068/// ///CB 21/19 Q1018 TEMPO 4000 -TSRA
  • 191530Z AUTO 28005KT 240V330 9999 VCTS FEW031/// BKN052/// OVC068/// ///CB 21/19 Q1018 TEMPO 4000 -SHRA
  • 191500Z AUTO 29008G20KT 230V320 9999 -TSRA FEW014/// SCT025/// BKN033/// ///CB 21/19 Q1018 TEMPO 4000 -SHRA

TAF TAF LFRM
Valido dal 19 a 18 ore il 20 a 18 ore UTC


191700Z 1918/2018 24005KT CAVOK
TEMPO 1918/1924 4000 -SHRA SCT025CB BKN030
BECMG 1921/1924 VRB04KT
PROB30
TEMPO 2003/2007 3000 BR BKN006



MetMap, La meteo Aeronautica in un colpo d'occhio ! - Copyright ORBIFLY Dicembre 2007 - Disclaimer

ORBIFLY MET'MAP TEAM :

Programmazione e sviluppo : Alexandra Zaïnal
Concezione : Baudouin d'Aumeries
Supporto tecnico e logistico : Manuel Goepfert
Aiuto : Marc-Olivier Méhu
Aiuto per la traduzione : Arnaldo La Scala




FONTI E CREDITI :

   NOAA